Terminal Aerodrome Forecast
Issued by NWS Wakefield, VA

Home | Current Version | Previous Version | Text Only | Print | Product List | Glossary On
Versions: 1 2 3 4 5 6 7 8 9 10 11 12 13 14 15 16
000
FTUS41 KAKQ 191700
TAFORF
TAF
KORF 191729Z 1918/2018 36007KT P6SM SKC
     FM200800 03006KT P6SM SCT020 BKN200
     FM201600 03006KT P6SM BKN020 OVC080=

USA.gov is the U.S. government's official web portal to all federal, state and local government web resources and services.